Time;durP1;ratioP1;P1;durP2;ratioP2;P2;SDS_P1;SDS_P2;PMS_P1;PMS_P2;Temp;Humidity;BMP_temperature;BMP_pressure;BME280_temperature;BME280_humidity;BME280_pressure;Samples;Min_cycle;Max_cycle;Signal;HPM_P1;HPM_P2
2022/05/23 00:01:27;;;;;;;3.92;3.63;;;;;;;18.47;46.60;94482.44;5115754;28;20207;-72
2022/05/23 00:03:54;;;;;;;6.15;3.83;;;;;;;18.47;46.38;94474.06;5114844;28;20199;-72
2022/05/23 00:06:22;;;;;;;3.83;3.53;;;;;;;18.46;46.71;94480.88;5114763;28;20264;-72
2022/05/23 00:08:49;;;;;;;3.63;3.33;;;;;;;18.43;46.33;94476.13;5115561;28;20190;-72
2022/05/23 00:11:16;;;;;;;3.42;3.13;;;;;;;18.44;46.46;94476.91;5115586;28;20290;-72
2022/05/23 00:13:44;;;;;;;3.10;2.90;;;;;;;18.45;46.55;94481.31;5115252;28;20176;-72
2022/05/23 00:16:11;;;;;;;3.60;3.30;;;;;;;18.43;46.53;94476.13;5115387;28;20180;-72
2022/05/23 00:18:39;;;;;;;3.40;3.20;;;;;;;18.42;46.63;94468.16;5114073;28;20603;-72
2022/05/23 00:21:06;;;;;;;3.95;3.53;;;;;;;18.41;46.74;94459.00;5115410;28;20175;-71
2022/05/23 00:23:33;;;;;;;3.78;3.45;;;;;;;18.40;46.59;94468.56;5114727;28;20191;-71
2022/05/23 00:26:00;;;;;;;3.47;3.13;;;;;;;18.40;46.65;94468.56;5114062;28;20231;-71
2022/05/23 00:28:27;;;;;;;3.72;3.40;;;;;;;18.39;46.86;94469.78;5114156;28;20228;-71
2022/05/23 00:30:54;;;;;;;3.47;3.22;;;;;;;18.36;46.85;94461.47;5114301;28;20219;-71
2022/05/23 00:36:07;;;;;;;3.28;2.97;;;;;;;18.36;47.05;94453.09;5115053;28;20255;-71
2022/05/23 00:38:34;;;;;;;3.78;3.47;;;;;;;18.35;46.87;94465.47;5114340;28;20192;-71
2022/05/23 00:43:58;;;;;;;4.18;3.65;;;;;;;18.27;47.05;94473.94;5118776;28;20176;-71
2022/05/23 00:46:25;;;;;;;4.35;3.20;;;;;;;18.25;47.00;94473.53;5100589;28;20211;-71
2022/05/23 00:48:52;;;;;;;3.67;3.38;;;;;;;18.23;47.06;94473.19;5118728;28;20180;-71
2022/05/23 00:54:06;;;;;;;4.18;3.17;;;;;;;18.24;47.08;94474.75;5117746;28;20192;-71
2022/05/23 00:56:43;;;;;;;3.13;2.83;;;;;;;18.25;46.99;94478.34;5118760;28;20192;-71
2022/05/23 00:59:11;;;;;;;3.22;3.03;;;;;;;18.25;47.19;94470.75;5118790;28;20195;-71
2022/05/23 01:01:38;;;;;;;3.67;3.33;;;;;;;18.25;47.26;94473.53;5117654;28;20199;-71
2022/05/23 01:04:06;;;;;;;3.30;3.10;;;;;;;18.26;47.19;94477.13;5117919;28;20204;-71
2022/05/23 01:06:35;;;;;;;3.63;3.33;;;;;;;18.25;47.30;94475.53;5118481;28;20203;-71
2022/05/23 01:09:02;;;;;;;3.30;3.00;;;;;;;18.24;47.18;94480.34;5118434;28;20184;-71
2022/05/23 01:11:29;;;;;;;3.72;3.35;;;;;;;18.22;47.35;94477.16;5118423;28;20195;-71
2022/05/23 01:13:56;;;;;;;3.63;3.30;;;;;;;18.21;47.69;94475.59;5117449;28;20195;-71
2022/05/23 01:16:24;;;;;;;5.57;3.35;;;;;;;18.20;47.38;94474.00;5117939;28;20180;-71
2022/05/23 01:18:52;;;;;;;3.83;3.20;;;;;;;18.18;47.71;94470.81;5118212;28;20241;-71
2022/05/23 01:21:27;;;;;;;3.78;3.38;;;;;;;18.17;47.57;94463.66;5117410;28;20192;-71
2022/05/23 01:24:00;;;;;;;3.33;3.05;;;;;;;18.15;47.67;94460.50;5117092;28;20210;-71
2022/05/23 01:26:28;;;;;;;4.28;3.30;;;;;;;18.14;47.76;94458.91;5117171;28;20216;-71
2022/05/23 01:28:55;;;;;;;3.42;3.13;;;;;;;18.11;47.92;94451.38;5117058;28;20192;-71
2022/05/23 01:31:22;;;;;;;3.40;3.10;;;;;;;18.11;48.04;94450.59;5117981;28;20188;-71
2022/05/23 01:33:49;;;;;;;5.55;3.53;;;;;;;18.11;48.11;94456.16;5116944;28;20207;-71
2022/05/23 01:36:16;;;;;;;3.72;3.40;;;;;;;18.10;48.39;94449.81;5117290;28;20500;-71
2022/05/23 01:38:43;;;;;;;3.97;3.50;;;;;;;18.09;48.31;94447.44;5117386;28;20195;-71
2022/05/23 01:41:10;;;;;;;3.78;3.40;;;;;;;18.07;48.89;94447.84;5117551;28;20379;-71
2022/05/23 01:43:39;;;;;;;3.70;3.40;;;;;;;18.04;49.00;94448.66;5117931;28;20235;-71
2022/05/23 01:46:05;;;;;;;3.67;3.38;;;;;;;18.03;49.33;94459.03;5117599;28;20196;-72
2022/05/23 01:48:32;;;;;;;3.88;3.53;;;;;;;18.00;49.79;94465.44;5117631;28;20188;-72
2022/05/23 01:50:59;;;;;;;3.75;3.40;;;;;;;17.96;49.99;94469.50;5117850;28;20195;-71
2022/05/23 01:53:26;;;;;;;3.70;3.40;;;;;;;17.88;50.79;94470.78;5117146;28;20184;-71
2022/05/23 01:55:53;;;;;;;3.83;3.53;;;;;;;17.82;51.25;94469.63;5117435;28;20284;-71
2022/05/23 02:01:13;;;;;;;4.10;3.80;;;;;;;17.75;51.39;94459.31;5117205;28;20628;-71
2022/05/23 02:01:15;;;;;;;4.50;4.10;;;;;;;17.67;51.59;94452.22;5116068;28;20210;-72
2022/05/23 02:03:43;;;;;;;5.10;4.65;;;;;;;17.64;51.93;94453.06;5116425;28;20227;-71
2022/05/23 02:06:10;;;;;;;4.63;4.22;;;;;;;17.64;51.44;94461.41;5117305;28;20186;-72
2022/05/23 02:08:37;;;;;;;4.70;4.20;;;;;;;17.65;51.61;94457.44;5116572;28;20203;-72
2022/05/23 02:11:05;;;;;;;4.78;4.28;;;;;;;17.68;52.05;94462.97;5116624;28;20260;-71
2022/05/23 02:13:34;;;;;;;4.15;3.85;;;;;;;17.61;52.18;94465.03;5117771;27;20184;-71
2022/05/23 02:16:01;;;;;;;4.85;4.47;;;;;;;17.62;52.28;94458.25;5116550;28;20200;-71
2022/05/23 02:18:30;;;;;;;4.65;4.25;;;;;;;17.63;52.35;94457.06;5116144;28;20218;-72
2022/05/23 02:20:57;;;;;;;4.57;4.18;;;;;;;17.50;53.03;94454.78;5115693;28;20235;-72
2022/05/23 02:23:24;;;;;;;4.70;4.30;;;;;;;17.36;53.38;94460.50;5116698;28;20658;-72
2022/05/23 02:25:51;;;;;;;4.80;4.40;;;;;;;17.27;53.59;94472.09;5115975;28;20195;-72
2022/05/23 02:28:18;;;;;;;4.63;4.22;;;;;;;17.32;53.36;94468.88;5115913;28;20530;-72
2022/05/23 02:30:46;;;;;;;4.20;3.90;;;;;;;17.40;53.02;94457.66;5115606;28;20191;-72
2022/05/23 02:33:13;;;;;;;5.13;4.63;;;;;;;17.48;53.08;94457.19;5116495;28;20214;-72
2022/05/23 02:35:41;;;;;;;4.40;4.10;;;;;;;17.54;52.96;94458.34;5116748;28;20197;-72
2022/05/23 02:38:08;;;;;;;5.15;4.75;;;;;;;17.59;52.87;94457.09;5116055;28;20195;-72
2022/05/23 02:40:35;;;;;;;4.57;4.22;;;;;;;17.64;52.58;94458.63;5116498;28;20187;-72
2022/05/23 02:43:02;;;;;;;5.05;4.50;;;;;;;17.69;52.35;94460.97;5116518;28;20234;-72
2022/05/23 02:45:29;;;;;;;4.60;4.20;;;;;;;17.73;52.38;94467.31;5115794;28;20218;-72
2022/05/23 02:47:56;;;;;;;4.97;4.38;;;;;;;17.73;52.31;94465.31;5116418;28;20223;-71
2022/05/23 02:50:23;;;;;;;4.53;4.22;;;;;;;17.75;52.25;94474.06;5116117;28;20203;-72
2022/05/23 02:52:51;;;;;;;4.40;4.10;;;;;;;17.75;52.30;94457.34;5116079;28;20188;-72
2022/05/23 02:55:18;;;;;;;4.75;4.28;;;;;;;17.76;52.45;94458.16;5116495;28;20184;-72
2022/05/23 02:57:45;;;;;;;4.80;4.18;;;;;;;17.76;52.20;94463.72;5116982;28;20191;-72
2022/05/23 03:00:13;;;;;;;4.80;4.43;;;;;;;17.77;52.30;94462.53;5116365;28;20192;-72
2022/05/23 03:05:24;;;;;;;4.90;4.43;;;;;;;17.82;51.95;94456.47;5115033;28;20191;-70
2022/05/23 03:07:52;;;;;;;4.57;4.20;;;;;;;17.83;51.63;94452.50;5114928;28;20226;-70
2022/05/23 03:10:19;;;;;;;4.10;3.80;;;;;;;17.86;51.93;94448.06;5115368;28;20635;-71
2022/05/23 03:12:47;;;;;;;4.25;3.85;;;;;;;17.89;51.84;94458.41;5115115;28;20223;-70
2022/05/23 03:15:14;;;;;;;3.97;3.67;;;;;;;17.90;51.54;94448.81;5115906;28;20198;-70
2022/05/23 03:17:41;;;;;;;4.13;3.72;;;;;;;17.93;51.33;94439.63;5114794;28;20203;-70
2022/05/23 03:20:09;;;;;;;4.57;3.88;;;;;;;17.95;51.38;94440.00;5116201;28;20191;-70
2022/05/23 03:28:07;;;;;;;4.30;3.90;;;;;;;18.01;50.81;94436.34;5115618;28;20222;-69
2022/05/23 03:30:35;;;;;;;4.93;4.28;;;;;;;17.99;50.77;94435.97;5115813;28;20202;-69
2022/05/23 03:33:02;;;;;;;4.38;4.00;;;;;;;17.98;50.86;94441.97;5114745;28;20506;-69
2022/05/23 03:35:30;;;;;;;6.13;5.53;;;;;;;17.95;50.64;94448.38;5116066;28;20184;-69
2022/05/23 03:37:57;;;;;;;4.88;4.47;;;;;;;17.93;50.80;94457.16;5114890;28;20188;-69
2022/05/23 03:40:26;;;;;;;4.70;4.30;;;;;;;17.91;50.96;94442.84;5115678;28;20188;-69
2022/05/23 03:42:53;;;;;;;6.50;5.00;;;;;;;17.91;50.93;94430.91;5115167;28;20227;-70
2022/05/23 03:45:20;;;;;;;4.03;3.65;;;;;;;17.88;50.79;94429.72;5115368;28;20195;-70
2022/05/23 03:47:47;;;;;;;4.50;4.10;;;;;;;17.87;50.94;94432.94;5114859;28;20215;-70
2022/05/23 03:50:14;;;;;;;6.07;5.13;;;;;;;17.88;51.07;94445.66;5115618;28;20184;-70
2022/05/23 03:52:41;;;;;;;6.63;4.90;;;;;;;17.88;50.97;94445.66;5114686;28;20195;-69
2022/05/23 03:55:08;;;;;;;4.93;4.03;;;;;;;17.88;51.89;94454.03;5114497;28;20195;-69
2022/05/23 03:57:37;;;;;;;4.35;3.90;;;;;;;17.84;52.21;94451.28;5115009;28;20199;-69
2022/05/23 04:00:06;;;;;;;6.57;4.40;;;;;;;17.79;52.75;94452.53;5114462;28;20263;-71
2022/05/23 04:02:33;;;;;;;5.13;4.63;;;;;;;17.67;53.78;94455.81;5116138;28;20199;-71
2022/05/23 04:05:00;;;;;;;6.38;5.13;;;;;;;17.61;54.76;94462.22;5114618;28;20257;-72
2022/05/23 04:07:27;;;;;;;5.15;4.65;;;;;;;17.52;54.91;94451.56;5114355;28;20215;-71
2022/05/23 04:09:54;;;;;;;7.07;4.60;;;;;;;17.42;55.59;94456.03;5115578;28;20188;-68
2022/05/23 04:12:21;;;;;;;5.85;5.35;;;;;;;17.35;55.89;94444.16;5114566;28;20192;-68
2022/05/23 04:14:49;;;;;;;6.70;5.10;;;;;;;17.31;56.13;94458.91;5114381;28;20195;-68
2022/05/23 04:17:16;;;;;;;6.00;5.13;;;;;;;17.32;56.54;94459.72;5118558;28;20194;-68
2022/05/23 04:19:43;;;;;;;6.68;5.32;;;;;;;17.30;56.78;94459.34;5119367;28;20187;-68
2022/05/23 04:22:09;;;;;;;8.50;5.68;;;;;;;17.28;57.01;94456.16;5119411;28;20187;-68
2022/05/23 04:24:37;;;;;;;6.00;5.50;;;;;;;17.29;57.33;94452.19;5119169;28;20192;-68
2022/05/23 04:27:05;;;;;;;5.57;5.07;;;;;;;17.30;56.71;94448.97;5118170;28;20207;-68
2022/05/23 04:29:31;;;;;;;6.57;5.97;;;;;;;17.29;56.71;94446.59;5119211;28;20198;-68
2022/05/23 04:32:00;;;;;;;5.97;5.38;;;;;;;17.30;57.35;94460.13;5118264;28;20532;-68
2022/05/23 04:37:10;;;;;;;6.07;5.10;;;;;;;17.31;57.45;94461.69;5118753;28;20489;-68
2022/05/23 04:39:37;;;;;;;6.05;4.90;;;;;;;17.32;57.87;94457.72;5118496;28;20310;-68
2022/05/23 04:42:05;;;;;;;5.78;4.45;;;;;;;17.34;56.85;94451.72;5117855;28;20223;-68
2022/05/23 04:44:32;;;;;;;6.43;4.95;;;;;;;17.39;56.99;94450.50;5117992;28;20195;-68
2022/05/23 04:49:49;;;;;;;3.88;3.58;;;;;;;17.50;54.69;94426.09;5117612;28;20200;-68
2022/05/23 04:52:19;;;;;;;3.50;3.20;;;;;;;17.58;53.68;94424.84;5117909;28;20566;-68
2022/05/23 04:54:47;;;;;;;4.07;3.45;;;;;;;17.64;52.60;94431.53;5118703;28;20207;-68
2022/05/23 04:57:14;;;;;;;3.35;3.00;;;;;;;17.67;52.29;94429.91;5118841;28;20212;-68
2022/05/23 04:59:41;;;;;;;3.17;2.97;;;;;;;17.74;51.46;94432.63;5117457;28;20676;-68
2022/05/23 05:02:09;;;;;;;3.05;2.75;;;;;;;17.79;51.36;94433.00;5117773;28;20205;-68
2022/05/23 05:04:36;;;;;;;4.50;2.92;;;;;;;17.85;51.44;94438.13;5118127;28;20217;-68
2022/05/23 05:07:04;;;;;;;3.55;2.97;;;;;;;17.88;51.04;94438.09;5118389;28;20203;-68
2022/05/23 05:09:31;;;;;;;4.28;3.38;;;;;;;17.92;50.43;94426.91;5117731;28;20191;-68
2022/05/23 05:11:58;;;;;;;3.63;2.70;;;;;;;17.92;49.49;94419.31;5117562;28;20204;-68
2022/05/23 05:14:26;;;;;;;3.47;3.20;;;;;;;17.93;49.40;94422.88;5118397;28;20195;-68
2022/05/23 05:16:53;;;;;;;3.47;2.47;;;;;;;17.93;49.08;94426.47;5117260;28;20204;-68
2022/05/23 05:19:21;;;;;;;2.60;2.40;;;;;;;17.94;48.93;94419.69;5117766;28;20260;-68
2022/05/23 05:21:48;;;;;;;3.30;2.50;;;;;;;17.97;48.75;94418.06;5118170;28;20184;-68
2022/05/23 05:24:14;;;;;;;2.42;2.22;;;;;;;17.96;48.00;94414.47;5118150;28;20183;-68
2022/05/23 05:26:41;;;;;;;2.80;2.60;;;;;;;17.96;48.47;94406.09;5116618;28;20211;-68
2022/05/23 05:29:08;;;;;;;3.28;2.70;;;;;;;17.99;48.35;94415.66;5118016;28;20191;-68
2022/05/23 05:31:45;;;;;;;3.05;2.75;;;;;;;18.05;48.73;94405.63;5117731;28;20620;-68
2022/05/23 05:34:15;;;;;;;2.80;2.45;;;;;;;18.08;48.22;94413.13;5118038;28;20184;-68
2022/05/23 05:36:46;;;;;;;2.75;2.50;;;;;;;18.15;48.68;94418.63;5117630;28;20534;-68
2022/05/23 05:39:15;;;;;;;3.05;2.47;;;;;;;18.21;48.47;94430.13;5117532;28;20192;-68
2022/05/23 05:41:45;;;;;;;3.22;2.42;;;;;;;18.26;48.37;94424.91;5117057;28;20246;-68
2022/05/23 05:44:17;;;;;;;3.45;3.15;;;;;;;18.32;48.69;94430.78;5116985;28;20622;-68
2022/05/23 05:46:48;;;;;;;2.80;2.60;;;;;;;18.37;48.83;94437.91;5116789;28;20200;-68
2022/05/23 05:49:17;;;;;;;2.80;2.60;;;;;;;18.39;48.33;94436.28;5116494;28;20208;-68
2022/05/23 05:51:46;;;;;;;3.17;2.83;;;;;;;18.41;48.16;94436.66;5117051;28;20192;-68
2022/05/23 05:54:16;;;;;;;2.92;2.63;;;;;;;18.42;48.15;94445.84;5116591;28;20193;-66
2022/05/23 05:56:45;;;;;;;3.28;2.42;;;;;;;18.41;48.40;94447.03;5117607;28;20211;-69
2022/05/23 05:59:12;;;;;;;2.97;2.53;;;;;;;18.40;48.13;94439.88;5116656;28;20223;-68
2022/05/23 06:01:40;;;;;;;3.60;3.30;;;;;;;18.40;48.33;94435.06;5116826;28;20187;-68
2022/05/23 06:04:08;;;;;;;3.15;2.70;;;;;;;18.40;48.29;94445.44;5117356;28;20191;-68
2022/05/23 06:12:04;;;;;;;5.05;3.20;;;;;;;18.42;48.21;94424.28;5116043;28;20227;-68
2022/05/23 06:14:31;;;;;;;3.10;2.78;;;;;;;18.44;48.30;94421.84;5116130;28;20187;-68
2022/05/23 06:16:58;;;;;;;2.92;2.67;;;;;;;18.47;48.30;94420.22;5115964;28;20210;-68
2022/05/23 06:19:25;;;;;;;3.50;2.70;;;;;;;18.50;48.29;94419.38;5116588;28;20204;-68
2022/05/23 06:21:51;;;;;;;3.28;2.97;;;;;;;18.53;48.50;94416.56;5117126;28;20191;-68
2022/05/23 06:24:20;;;;;;;2.67;2.47;;;;;;;18.56;48.57;94414.94;5116033;28;20195;-68
2022/05/23 06:26:46;;;;;;;3.17;2.85;;;;;;;18.60;48.28;94403.72;5116984;28;20195;-68
2022/05/23 06:29:13;;;;;;;3.50;2.70;;;;;;;18.64;48.44;94413.59;5116477;28;20214;-68
2022/05/23 06:31:40;;;;;;;3.42;2.97;;;;;;;18.67;48.24;94412.78;5115994;28;20206;-69
2022/05/23 06:34:07;;;;;;;3.08;2.78;;;;;;;18.67;47.98;94398.81;5115901;28;20184;-69
2022/05/23 06:36:36;;;;;;;2.92;2.72;;;;;;;18.70;48.11;94402.75;5116098;28;20283;-69
2022/05/23 06:39:03;;;;;;;3.45;2.80;;;;;;;18.73;47.69;94396.34;5114901;28;20563;-69
2022/05/23 06:41:31;;;;;;;5.13;3.00;;;;;;;18.79;47.56;94393.88;5116103;28;20597;-68
2022/05/23 06:43:59;;;;;;;3.30;2.40;;;;;;;18.83;46.66;94408.59;5115831;28;20199;-68
2022/05/23 06:46:26;;;;;;;3.80;2.25;;;;;;;18.85;46.70;94395.78;5116314;28;20179;-69
2022/05/23 06:48:53;;;;;;;3.03;2.63;;;;;;;18.87;46.88;94398.13;5115433;28;20223;-69
2022/05/23 06:51:20;;;;;;;4.13;2.35;;;;;;;18.86;46.95;94400.16;5116027;28;20249;-69
2022/05/23 06:53:47;;;;;;;3.13;2.42;;;;;;;18.89;46.83;94395.72;5115675;28;20569;-69
2022/05/23 06:56:14;;;;;;;3.00;2.70;;;;;;;18.92;46.31;94401.25;5115426;28;20222;-69
2022/05/23 06:58:42;;;;;;;5.32;3.22;;;;;;;18.98;46.68;94404.34;5115467;28;20192;-69
2022/05/23 07:01:10;;;;;;;3.50;3.20;;;;;;;19.02;45.43;94398.72;5115960;28;20200;-69
2022/05/23 07:03:36;;;;;;;2.80;2.60;;;;;;;19.06;45.86;94403.00;5115628;28;20184;-69
2022/05/23 07:14:20;;;;;;;4.13;3.20;;;;;;;19.14;45.41;94398.13;5115196;28;20187;-68
2022/05/23 07:16:47;;;;;;;4.22;3.42;;;;;;;19.15;45.82;94403.28;5114983;28;20649;-69
2022/05/23 07:19:15;;;;;;;3.40;2.92;;;;;;;19.18;45.62;94396.06;5115273;28;20249;-69
2022/05/23 07:21:41;;;;;;;3.72;2.97;;;;;;;19.21;45.47;94392.41;5115441;28;20188;-69
2022/05/23 07:24:09;;;;;;;4.28;2.80;;;;;;;19.23;45.01;94393.56;5115289;28;20199;-68
2022/05/23 07:26:37;;;;;;;3.63;2.65;;;;;;;19.25;44.52;94401.53;5114976;28;20600;-69
2022/05/23 07:29:04;;;;;;;3.65;2.78;;;;;;;19.26;44.92;94399.53;5114865;28;20224;-68
2022/05/23 07:31:32;;;;;;;3.35;2.85;;;;;;;19.29;45.16;94402.25;5114600;28;20195;-68
2022/05/23 07:33:59;;;;;;;3.95;2.67;;;;;;;19.35;45.11;94389.34;5114974;28;20213;-68
2022/05/23 07:36:26;;;;;;;3.95;2.70;;;;;;;19.41;44.71;94390.44;5114596;28;20198;-68
2022/05/23 07:38:53;;;;;;;2.70;2.50;;;;;;;19.49;43.70;94393.91;5115392;28;20232;-68
2022/05/23 07:41:20;;;;;;;2.40;2.20;;;;;;;19.55;42.81;94383.03;5115957;28;20184;-68
2022/05/23 07:43:47;;;;;;;4.35;2.33;;;;;;;19.65;43.19;94382.88;5115706;28;20235;-68
2022/05/23 07:46:15;;;;;;;3.08;2.80;;;;;;;19.73;43.03;94391.91;5115831;28;20191;-68
2022/05/23 07:48:45;;;;;;;2.90;2.60;;;;;;;19.76;43.24;94395.88;5114778;28;20215;-68
2022/05/23 07:51:14;;;;;;;4.65;3.30;;;;;;;19.79;44.25;94395.00;5117695;28;20192;-68
2022/05/23 08:01:54;;;;;;;3.33;2.53;;;;;;;19.95;42.34;94406.28;5119668;28;20176;-68
2022/05/23 08:04:24;;;;;;;3.00;2.55;;;;;;;20.01;41.36;94404.56;5118858;28;20294;-68
2022/05/23 08:06:51;;;;;;;2.85;2.50;;;;;;;20.05;41.11;94405.28;5118763;28;20196;-69
2022/05/23 08:09:18;;;;;;;3.60;3.00;;;;;;;20.07;40.48;94400.03;5118451;28;20227;-69
2022/05/23 08:11:47;;;;;;;2.85;2.50;;;;;;;20.07;41.16;94402.03;5119508;28;20188;-69
2022/05/23 08:14:15;;;;;;;3.63;2.78;;;;;;;20.06;42.00;94401.25;5118644;28;20196;-69
2022/05/23 08:16:42;;;;;;;2.58;2.33;;;;;;;20.05;41.71;94394.09;5119384;28;20183;-69
2022/05/23 08:19:09;;;;;;;3.03;2.83;;;;;;;20.00;42.42;94396.59;5119456;28;20188;-69
2022/05/23 08:21:41;;;;;;;4.18;2.40;;;;;;;19.98;42.49;94394.22;5119085;28;20188;-68
2022/05/23 08:24:08;;;;;;;2.80;2.60;;;;;;;19.97;41.76;94384.25;5118776;28;20198;-68
2022/05/23 08:26:35;;;;;;;3.53;2.63;;;;;;;19.99;42.09;94403.41;5119290;28;20212;-68
2022/05/23 08:29:02;;;;;;;2.97;2.50;;;;;;;19.96;41.45;94394.66;5118876;28;20196;-68
2022/05/23 08:31:28;;;;;;;3.08;2.75;;;;;;;19.99;42.04;94392.22;5119208;28;20241;-68
2022/05/23 08:33:55;;;;;;;2.72;2.53;;;;;;;20.08;41.58;94386.81;5117701;28;20215;-68
2022/05/23 08:36:22;;;;;;;5.15;2.60;;;;;;;20.13;40.82;94392.72;5118791;28;20192;-68
2022/05/23 08:38:51;;;;;;;2.30;2.10;;;;;;;20.11;40.86;94389.56;5117736;28;20192;-68
2022/05/23 08:41:20;;;;;;;4.47;2.67;;;;;;;20.09;41.63;94386.41;5118008;28;20188;-68
2022/05/23 08:43:52;;;;;;;4.15;2.60;;;;;;;20.10;42.03;94384.41;5117654;28;20288;-68
2022/05/23 08:46:32;;;;;;;2.72;2.50;;;;;;;20.12;41.13;94382.75;5118896;28;20179;-68
2022/05/23 08:49:06;;;;;;;3.17;2.58;;;;;;;20.15;41.22;94376.28;5118969;28;20203;-68
2022/05/23 08:51:39;;;;;;;3.97;2.40;;;;;;;20.18;41.68;94397.81;5117589;28;20544;-68
2022/05/23 08:54:17;;;;;;;3.25;2.50;;;;;;;20.20;41.14;94395.38;5118521;28;20188;-68
2022/05/23 08:56:48;;;;;;;2.53;2.35;;;;;;;20.19;41.03;94373.41;5118653;28;20192;-68
2022/05/23 08:59:36;;;;;;;5.95;3.10;;;;;;;20.22;41.25;94377.34;5118749;28;20180;-68
2022/05/23 09:02:05;;;;;;;2.55;2.25;;;;;;;20.22;40.94;94375.34;5116957;28;20200;-68
2022/05/23 09:04:42;;;;;;;4.68;2.33;;;;;;;20.20;41.34;94366.59;5118241;28;20195;-69
2022/05/23 09:07:09;;;;;;;7.65;2.47;;;;;;;20.18;40.48;94366.22;5117673;28;20213;-69
2022/05/23 09:09:38;;;;;;;6.15;2.40;;;;;;;20.20;40.81;94366.59;5117356;28;20211;-69
2022/05/23 09:12:09;;;;;;;3.22;2.75;;;;;;;20.23;41.28;94370.53;5117483;28;20575;-69
2022/05/23 09:14:36;;;;;;;3.15;2.28;;;;;;;20.29;41.53;94361.19;5117724;28;20210;-69
2022/05/23 09:17:04;;;;;;;3.22;2.63;;;;;;;20.26;41.07;94364.88;5118564;28;20263;-69
2022/05/23 09:19:37;;;;;;;3.45;2.50;;;;;;;20.28;40.99;94365.22;5117516;28;20196;-69
2022/05/23 09:22:15;;;;;;;4.15;2.42;;;;;;;20.42;41.16;94355.72;5117257;28;20188;-69
2022/05/23 09:24:47;;;;;;;4.07;2.40;;;;;;;20.63;41.36;94357.28;5117300;28;20188;-69
2022/05/23 09:27:18;;;;;;;3.08;2.40;;;;;;;20.83;41.01;94355.19;5117819;28;20203;-68
2022/05/23 09:29:51;;;;;;;2.65;2.35;;;;;;;20.96;40.86;94354.53;5116819;28;20227;-69
2022/05/23 09:32:18;;;;;;;4.45;2.50;;;;;;;21.13;40.90;94348.47;5117510;28;20256;-69
2022/05/23 09:34:47;;;;;;;2.72;2.53;;;;;;;21.19;40.98;94343.13;5116702;28;20628;-69
2022/05/23 09:37:19;;;;;;;6.10;2.65;;;;;;;21.22;41.28;94358.28;5118073;28;20176;-68
2022/05/23 09:39:53;;;;;;;3.15;2.38;;;;;;;21.25;40.85;94346.19;5116619;28;20195;-69
2022/05/23 09:48:09;;;;;;;3.30;2.47;;;;;;;21.52;40.04;94345.91;5117483;28;20172;-68
2022/05/23 09:50:38;;;;;;;3.80;2.60;;;;;;;21.60;38.93;94356.50;5117309;28;20591;-68
2022/05/23 09:53:06;;;;;;;2.50;2.30;;;;;;;21.70;40.07;94339.81;5116778;28;20204;-68
2022/05/23 09:55:37;;;;;;;3.25;2.50;;;;;;;21.91;40.56;94342.03;5117201;28;20199;-68
2022/05/23 09:58:06;;;;;;;2.88;2.65;;;;;;;22.16;39.82;94349.00;5117475;28;20187;-68
2022/05/23 10:00:35;;;;;;;3.08;2.45;;;;;;;22.23;38.73;94343.97;5117265;28;20176;-68
2022/05/23 10:03:04;;;;;;;3.30;2.40;;;;;;;22.27;38.71;94333.41;5116524;28;20210;-68
2022/05/23 10:05:35;;;;;;;5.93;2.60;;;;;;;22.44;38.00;94325.69;5117567;28;20187;-68
2022/05/23 10:08:03;;;;;;;3.08;2.45;;;;;;;22.55;37.81;94326.13;5117397;28;20195;-68
2022/05/23 10:10:32;;;;;;;5.78;2.63;;;;;;;22.67;38.37;94335.81;5116532;28;20231;-68
2022/05/23 10:13:28;;;;;;;3.30;2.70;;;;;;;22.73;37.08;94325.59;5098995;28;20203;-68
2022/05/23 10:15:57;;;;;;;3.10;2.50;;;;;;;22.74;37.68;94318.72;5081698;28;20400;-68
2022/05/23 10:18:26;;;;;;;2.90;2.42;;;;;;;22.88;37.96;94325.91;5117336;28;20211;-68
2022/05/23 10:20:53;;;;;;;4.72;2.42;;;;;;;22.91;36.62;94333.41;5117097;28;20191;-69
2022/05/23 10:23:22;;;;;;;3.08;2.55;;;;;;;22.95;36.21;94325.72;5116565;28;20196;-68
2022/05/23 10:25:57;;;;;;;2.75;2.55;;;;;;;22.91;35.78;94315.78;5116148;28;20199;-70
2022/05/23 10:28:32;;;;;;;2.55;2.38;;;;;;;22.94;35.59;94312.88;5117029;28;20189;-69
2022/05/23 10:31:02;;;;;;;2.97;2.00;;;;;;;23.12;36.65;94311.50;5115893;28;20191;-70
2022/05/23 10:33:30;;;;;;;2.30;2.10;;;;;;;23.21;37.25;94306.00;5116495;28;20200;-68
2022/05/23 10:36:01;;;;;;;2.55;2.35;;;;;;;23.31;36.63;94310.44;5116089;28;20200;-68
2022/05/23 10:44:24;;;;;;;5.60;2.38;;;;;;;23.68;35.93;94302.38;5115939;28;20188;-69
2022/05/23 10:46:55;;;;;;;2.50;2.20;;;;;;;23.74;35.79;94292.09;5115580;28;20195;-68
2022/05/23 10:49:24;;;;;;;2.70;2.50;;;;;;;23.82;34.90;94287.81;5116740;28;20295;-69
2022/05/23 10:51:59;;;;;;;1.98;1.70;;;;;;;23.91;34.15;94290.66;5116379;28;20188;-69
2022/05/23 10:54:38;;;;;;;2.55;2.35;;;;;;;23.92;34.41;94285.81;5116450;28;20198;-67
2022/05/23 10:57:12;;;;;;;2.97;2.08;;;;;;;23.91;35.05;94273.78;5116549;28;20199;-66
2022/05/23 10:59:43;;;;;;;2.30;2.03;;;;;;;24.03;34.64;94283.38;5116456;28;20522;-69
2022/05/23 11:02:26;;;;;;;2.47;1.95;;;;;;;24.13;35.02;94287.06;5115452;28;20196;-68
2022/05/23 11:05:02;;;;;;;2.55;2.20;;;;;;;24.14;32.67;94283.00;5116306;28;20259;-68
2022/05/23 11:07:36;;;;;;;2.53;2.33;;;;;;;24.19;33.69;94288.03;5116193;28;20183;-69
2022/05/23 11:10:10;;;;;;;2.60;2.10;;;;;;;24.20;33.61;94278.34;5115315;28;20212;-68
2022/05/23 11:12:42;;;;;;;4.35;2.30;;;;;;;24.20;33.57;94289.59;5115010;28;20199;-68
2022/05/23 11:15:29;;;;;;;1.88;1.70;;;;;;;24.21;33.68;94282.72;5116065;28;20280;-68
2022/05/23 11:18:02;;;;;;;2.95;2.10;;;;;;;24.24;34.19;94288.22;5115014;28;20298;-67
2022/05/23 11:20:31;;;;;;;2.40;2.03;;;;;;;24.39;34.59;94282.84;5115304;28;20561;-68
2022/05/23 11:23:01;;;;;;;2.58;2.20;;;;;;;24.44;33.30;94276.63;5115563;28;20611;-67
2022/05/23 11:25:30;;;;;;;2.97;2.10;;;;;;;24.40;33.00;94281.63;5114275;28;20198;-67
2022/05/23 11:33:47;;;;;;;3.22;2.45;;;;;;;24.56;33.74;94288.25;5114874;28;20207;-67
2022/05/23 11:36:33;;;;;;;3.25;1.98;;;;;;;24.58;32.25;94288.56;5115509;28;20212;-67
2022/05/23 11:38:59;;;;;;;2.17;1.98;;;;;;;24.60;32.23;94284.06;5115698;28;20279;-68
2022/05/23 11:41:34;;;;;;;2.85;2.30;;;;;;;24.64;33.11;94273.41;5114628;28;20191;-67
2022/05/23 11:44:13;;;;;;;3.15;2.20;;;;;;;24.72;33.08;94276.72;5114992;28;20194;-67
2022/05/23 11:47:16;;;;;;;2.30;2.10;;;;;;;24.80;32.20;94280.84;5114722;28;20202;-67
2022/05/23 11:49:44;;;;;;;2.45;1.95;;;;;;;24.82;32.07;94274.75;5115226;28;20207;-67
2022/05/23 11:52:24;;;;;;;2.38;2.05;;;;;;;24.79;31.71;94273.63;5115299;28;20647;-67
2022/05/23 11:54:51;;;;;;;2.40;2.20;;;;;;;24.78;31.94;94277.69;5114638;28;20191;-67
2022/05/23 11:57:39;;;;;;;2.20;1.98;;;;;;;24.81;31.82;94278.81;5115671;28;20207;-67
2022/05/23 12:00:32;;;;;;;2.53;2.00;;;;;;;24.86;32.07;94278.19;5115573;28;20171;-68
2022/05/23 12:03:15;;;;;;;2.25;2.05;;;;;;;24.88;31.97;94276.50;5105852;28;20201;-68
2022/05/23 12:05:43;;;;;;;2.75;2.08;;;;;;;24.95;32.20;94278.25;5114910;28;20192;-68
2022/05/23 12:08:32;;;;;;;2.30;2.10;;;;;;;24.94;31.64;94277.44;5115501;28;20184;-67
2022/05/23 12:11:02;;;;;;;2.83;2.10;;;;;;;24.98;31.44;94280.91;5115018;28;20276;-68
2022/05/23 12:13:51;;;;;;;2.50;2.30;;;;;;;25.02;30.74;94277.13;5115102;28;20630;-68
2022/05/23 12:16:41;;;;;;;2.70;2.30;;;;;;;25.02;31.57;94272.31;5114686;28;20217;-68
2022/05/23 12:19:21;;;;;;;2.50;2.30;;;;;;;25.08;32.61;94278.09;5105053;28;20219;-68
2022/05/23 12:21:49;;;;;;;6.85;2.40;;;;;;;25.13;32.61;94278.31;5115542;28;20202;-68
2022/05/23 12:24:32;;;;;;;2.83;2.50;;;;;;;25.15;31.87;94263.72;5114635;28;20195;-68
2022/05/23 12:27:02;;;;;;;3.10;2.90;;;;;;;25.16;31.42;94276.56;5115219;28;20192;-68
2022/05/23 12:29:32;;;;;;;4.03;2.70;;;;;;;25.11;30.16;94268.72;5115200;28;20208;-68
2022/05/23 12:32:12;;;;;;;2.40;2.22;;;;;;;25.04;29.93;94260.53;5114282;28;20196;-68
2022/05/23 12:34:44;;;;;;;3.22;2.28;;;;;;;24.98;30.21;94263.19;5115187;28;20253;-68
2022/05/23 12:37:16;;;;;;;3.13;2.40;;;;;;;24.98;29.29;94258.34;5116545;28;20180;-68
2022/05/23 12:39:51;;;;;;;2.40;2.17;;;;;;;24.97;30.40;94262.41;5118651;28;20559;-68
2022/05/23 12:42:31;;;;;;;3.22;2.17;;;;;;;25.07;30.88;94268.06;5118970;28;20266;-68
2022/05/23 12:45:42;;;;;;;2.40;2.20;;;;;;;25.17;31.68;94262.00;5119008;28;20268;-68
2022/05/23 12:48:25;;;;;;;3.38;2.50;;;;;;;25.29;31.62;94279.28;5118908;28;20188;-68